sensor_id;sensor_type;location;lat;lon;timestamp;P1;durP1;ratioP1;P2;durP2;ratioP2
50533;SDS011;60631;49.236;8.398;2022-07-23T00:00:16;8.18;;;7.43;;
50533;SDS011;60631;49.236;8.398;2022-07-23T00:03:17;8.88;;;8.02;;
50533;SDS011;60631;49.236;8.398;2022-07-23T00:06:18;8.52;;;7.72;;
50533;SDS011;60631;49.236;8.398;2022-07-23T00:09:19;8.85;;;7.95;;
50533;SDS011;60631;49.236;8.398;2022-07-23T00:12:21;8.88;;;7.97;;
50533;SDS011;60631;49.236;8.398;2022-07-23T00:15:22;8.63;;;7.82;;
50533;SDS011;60631;49.236;8.398;2022-07-23T00:18:23;9.27;;;8.32;;
50533;SDS011;60631;49.236;8.398;2022-07-23T00:21:24;8.48;;;7.68;;
50533;SDS011;60631;49.236;8.398;2022-07-23T00:24:25;8.50;;;7.70;;
50533;SDS011;60631;49.236;8.398;2022-07-23T00:27:26;8.70;;;7.78;;
50533;SDS011;60631;49.236;8.398;2022-07-23T00:30:27;8.27;;;7.57;;
50533;SDS011;60631;49.236;8.398;2022-07-23T00:33:32;8.07;;;7.32;;
50533;SDS011;60631;49.236;8.398;2022-07-23T00:36:33;8.13;;;7.35;;
50533;SDS011;60631;49.236;8.398;2022-07-23T00:39:35;7.72;;;7.10;;
50533;SDS011;60631;49.236;8.398;2022-07-23T00:42:36;7.70;;;6.82;;
50533;SDS011;60631;49.236;8.398;2022-07-23T00:45:37;7.78;;;7.15;;
50533;SDS011;60631;49.236;8.398;2022-07-23T00:48:38;9.00;;;6.43;;
50533;SDS011;60631;49.236;8.398;2022-07-23T00:51:39;7.53;;;6.75;;
50533;SDS011;60631;49.236;8.398;2022-07-23T00:54:40;7.13;;;6.43;;
50533;SDS011;60631;49.236;8.398;2022-07-23T00:57:41;6.65;;;6.05;;
50533;SDS011;60631;49.236;8.398;2022-07-23T01:00:42;6.75;;;6.15;;
50533;SDS011;60631;49.236;8.398;2022-07-23T01:03:43;7.22;;;6.30;;
50533;SDS011;60631;49.236;8.398;2022-07-23T01:06:44;7.30;;;6.65;;
50533;SDS011;60631;49.236;8.398;2022-07-23T01:09:46;9.52;;;6.75;;
50533;SDS011;60631;49.236;8.398;2022-07-23T01:12:47;7.28;;;6.03;;
50533;SDS011;60631;49.236;8.398;2022-07-23T01:15:48;6.28;;;5.68;;
50533;SDS011;60631;49.236;8.398;2022-07-23T01:18:49;6.10;;;5.60;;
50533;SDS011;60631;49.236;8.398;2022-07-23T01:21:50;6.35;;;5.70;;
50533;SDS011;60631;49.236;8.398;2022-07-23T01:24:52;6.20;;;5.60;;
50533;SDS011;60631;49.236;8.398;2022-07-23T01:27:53;6.28;;;5.47;;
50533;SDS011;60631;49.236;8.398;2022-07-23T01:30:54;6.15;;;5.55;;
50533;SDS011;60631;49.236;8.398;2022-07-23T01:33:55;5.60;;;5.10;;
50533;SDS011;60631;49.236;8.398;2022-07-23T01:36:56;5.85;;;5.15;;
50533;SDS011;60631;49.236;8.398;2022-07-23T01:39:57;5.88;;;5.28;;
50533;SDS011;60631;49.236;8.398;2022-07-23T01:42:58;5.85;;;5.25;;
50533;SDS011;60631;49.236;8.398;2022-07-23T01:45:59;5.72;;;5.18;;
50533;SDS011;60631;49.236;8.398;2022-07-23T01:49:00;5.80;;;5.30;;
50533;SDS011;60631;49.236;8.398;2022-07-23T01:52:02;6.13;;;5.40;;
50533;SDS011;60631;49.236;8.398;2022-07-23T01:55:03;5.70;;;5.20;;
50533;SDS011;60631;49.236;8.398;2022-07-23T01:58:04;5.50;;;5.00;;
50533;SDS011;60631;49.236;8.398;2022-07-23T02:01:06;6.72;;;5.55;;
50533;SDS011;60631;49.236;8.398;2022-07-23T02:04:07;5.80;;;5.20;;
50533;SDS011;60631;49.236;8.398;2022-07-23T02:07:08;5.72;;;5.10;;
50533;SDS011;60631;49.236;8.398;2022-07-23T02:10:09;5.57;;;5.07;;
50533;SDS011;60631;49.236;8.398;2022-07-23T02:13:10;6.50;;;5.28;;
50533;SDS011;60631;49.236;8.398;2022-07-23T02:16:11;6.38;;;5.15;;
50533;SDS011;60631;49.236;8.398;2022-07-23T02:19:12;7.07;;;5.13;;
50533;SDS011;60631;49.236;8.398;2022-07-23T02:22:13;5.80;;;5.30;;
50533;SDS011;60631;49.236;8.398;2022-07-23T02:25:14;5.97;;;5.45;;
50533;SDS011;60631;49.236;8.398;2022-07-23T02:28:15;6.05;;;5.55;;
50533;SDS011;60631;49.236;8.398;2022-07-23T02:31:16;5.85;;;5.30;;
50533;SDS011;60631;49.236;8.398;2022-07-23T02:34:17;6.07;;;5.47;;
50533;SDS011;60631;49.236;8.398;2022-07-23T02:37:18;7.13;;;5.88;;
50533;SDS011;60631;49.236;8.398;2022-07-23T02:40:20;7.47;;;5.68;;
50533;SDS011;60631;49.236;8.398;2022-07-23T02:43:21;5.80;;;5.28;;
50533;SDS011;60631;49.236;8.398;2022-07-23T02:46:22;6.28;;;5.72;;
50533;SDS011;60631;49.236;8.398;2022-07-23T02:49:23;5.90;;;5.30;;
50533;SDS011;60631;49.236;8.398;2022-07-23T02:52:24;6.10;;;5.60;;
50533;SDS011;60631;49.236;8.398;2022-07-23T02:55:25;7.00;;;5.53;;
50533;SDS011;60631;49.236;8.398;2022-07-23T02:58:26;5.97;;;5.47;;
50533;SDS011;60631;49.236;8.398;2022-07-23T03:01:27;6.30;;;5.50;;
50533;SDS011;60631;49.236;8.398;2022-07-23T03:04:28;7.55;;;5.38;;
50533;SDS011;60631;49.236;8.398;2022-07-23T03:07:29;6.05;;;5.55;;
50533;SDS011;60631;49.236;8.398;2022-07-23T03:10:30;5.63;;;5.13;;
50533;SDS011;60631;49.236;8.398;2022-07-23T03:13:31;5.57;;;5.18;;
50533;SDS011;60631;49.236;8.398;2022-07-23T03:16:32;5.90;;;5.30;;
50533;SDS011;60631;49.236;8.398;2022-07-23T03:19:33;6.10;;;4.90;;
50533;SDS011;60631;49.236;8.398;2022-07-23T03:22:34;5.80;;;5.28;;
50533;SDS011;60631;49.236;8.398;2022-07-23T03:25:35;7.43;;;5.60;;
50533;SDS011;60631;49.236;8.398;2022-07-23T03:28:36;6.75;;;6.05;;
50533;SDS011;60631;49.236;8.398;2022-07-23T03:31:38;11.63;;;6.05;;
50533;SDS011;60631;49.236;8.398;2022-07-23T03:34:39;6.18;;;5.68;;
50533;SDS011;60631;49.236;8.398;2022-07-23T03:37:40;6.07;;;5.40;;
50533;SDS011;60631;49.236;8.398;2022-07-23T03:40:41;7.43;;;5.88;;
50533;SDS011;60631;49.236;8.398;2022-07-23T03:43:42;8.32;;;6.13;;
50533;SDS011;60631;49.236;8.398;2022-07-23T03:46:43;6.63;;;5.95;;
50533;SDS011;60631;49.236;8.398;2022-07-23T03:49:44;6.63;;;5.95;;
50533;SDS011;60631;49.236;8.398;2022-07-23T03:52:45;6.07;;;5.43;;
50533;SDS011;60631;49.236;8.398;2022-07-23T03:55:46;6.50;;;5.90;;
50533;SDS011;60631;49.236;8.398;2022-07-23T03:58:47;6.78;;;5.93;;
50533;SDS011;60631;49.236;8.398;2022-07-23T04:01:48;6.72;;;5.78;;
50533;SDS011;60631;49.236;8.398;2022-07-23T04:04:49;6.88;;;5.85;;
50533;SDS011;60631;49.236;8.398;2022-07-23T04:07:50;11.48;;;7.25;;
50533;SDS011;60631;49.236;8.398;2022-07-23T04:10:51;12.73;;;7.72;;
50533;SDS011;60631;49.236;8.398;2022-07-23T04:13:52;11.63;;;7.15;;
50533;SDS011;60631;49.236;8.398;2022-07-23T04:16:53;9.80;;;7.05;;
50533;SDS011;60631;49.236;8.398;2022-07-23T04:19:54;9.20;;;7.57;;
50533;SDS011;60631;49.236;8.398;2022-07-23T04:22:55;9.50;;;7.35;;
50533;SDS011;60631;49.236;8.398;2022-07-23T04:25:56;7.78;;;7.00;;
50533;SDS011;60631;49.236;8.398;2022-07-23T04:28:57;9.60;;;7.18;;
50533;SDS011;60631;49.236;8.398;2022-07-23T04:31:58;8.43;;;7.63;;
50533;SDS011;60631;49.236;8.398;2022-07-23T04:34:59;8.23;;;7.40;;
50533;SDS011;60631;49.236;8.398;2022-07-23T04:38:00;9.57;;;7.28;;
50533;SDS011;60631;49.236;8.398;2022-07-23T04:41:02;8.10;;;7.30;;
50533;SDS011;60631;49.236;8.398;2022-07-23T04:44:03;8.65;;;7.50;;
50533;SDS011;60631;49.236;8.398;2022-07-23T04:47:04;8.60;;;7.80;;
50533;SDS011;60631;49.236;8.398;2022-07-23T04:50:05;8.60;;;7.80;;
50533;SDS011;60631;49.236;8.398;2022-07-23T04:53:06;8.60;;;7.80;;
50533;SDS011;60631;49.236;8.398;2022-07-23T04:56:07;11.75;;;8.45;;
50533;SDS011;60631;49.236;8.398;2022-07-23T04:59:08;8.05;;;7.28;;
50533;SDS011;60631;49.236;8.398;2022-07-23T05:02:09;9.10;;;7.30;;
50533;SDS011;60631;49.236;8.398;2022-07-23T05:05:10;8.57;;;7.78;;
50533;SDS011;60631;49.236;8.398;2022-07-23T05:08:11;8.60;;;7.80;;
50533;SDS011;60631;49.236;8.398;2022-07-23T05:11:12;9.00;;;8.10;;
50533;SDS011;60631;49.236;8.398;2022-07-23T05:14:13;8.70;;;7.72;;
50533;SDS011;60631;49.236;8.398;2022-07-23T05:17:15;8.45;;;7.68;;
50533;SDS011;60631;49.236;8.398;2022-07-23T05:20:16;8.73;;;7.93;;
50533;SDS011;60631;49.236;8.398;2022-07-23T05:23:17;8.50;;;7.80;;
50533;SDS011;60631;49.236;8.398;2022-07-23T05:26:18;9.30;;;8.40;;
50533;SDS011;60631;49.236;8.398;2022-07-23T05:29:19;9.75;;;8.80;;
50533;SDS011;60631;49.236;8.398;2022-07-23T05:32:20;8.85;;;8.15;;
50533;SDS011;60631;49.236;8.398;2022-07-23T05:35:21;9.15;;;8.18;;
50533;SDS011;60631;49.236;8.398;2022-07-23T05:38:22;9.35;;;8.45;;
50533;SDS011;60631;49.236;8.398;2022-07-23T05:41:23;9.02;;;8.15;;
50533;SDS011;60631;49.236;8.398;2022-07-23T05:44:24;9.80;;;8.90;;
50533;SDS011;60631;49.236;8.398;2022-07-23T05:47:28;8.40;;;7.60;;
50533;SDS011;60631;49.236;8.398;2022-07-23T05:50:29;8.60;;;7.80;;
50533;SDS011;60631;49.236;8.398;2022-07-23T05:53:30;8.48;;;7.57;;
50533;SDS011;60631;49.236;8.398;2022-07-23T05:56:31;7.82;;;7.10;;
50533;SDS011;60631;49.236;8.398;2022-07-23T05:59:32;8.25;;;7.40;;
50533;SDS011;60631;49.236;8.398;2022-07-23T06:02:33;9.10;;;8.20;;
50533;SDS011;60631;49.236;8.398;2022-07-23T06:05:34;9.10;;;8.15;;
50533;SDS011;60631;49.236;8.398;2022-07-23T06:08:35;9.55;;;7.57;;
50533;SDS011;60631;49.236;8.398;2022-07-23T06:11:36;9.77;;;7.75;;
50533;SDS011;60631;49.236;8.398;2022-07-23T06:14:37;9.23;;;8.40;;
50533;SDS011;60631;49.236;8.398;2022-07-23T06:17:38;9.27;;;8.43;;
50533;SDS011;60631;49.236;8.398;2022-07-23T06:20:39;8.65;;;7.93;;
50533;SDS011;60631;49.236;8.398;2022-07-23T06:23:40;9.00;;;8.20;;
50533;SDS011;60631;49.236;8.398;2022-07-23T06:26:42;8.60;;;7.70;;
50533;SDS011;60631;49.236;8.398;2022-07-23T06:29:43;8.40;;;7.60;;
50533;SDS011;60631;49.236;8.398;2022-07-23T06:32:45;9.95;;;7.57;;
50533;SDS011;60631;49.236;8.398;2022-07-23T06:35:46;8.32;;;7.47;;
50533;SDS011;60631;49.236;8.398;2022-07-23T06:38:47;9.27;;;8.38;;
50533;SDS011;60631;49.236;8.398;2022-07-23T06:41:48;10.02;;;8.00;;
50533;SDS011;60631;49.236;8.398;2022-07-23T06:44:49;8.93;;;8.10;;
50533;SDS011;60631;49.236;8.398;2022-07-23T06:47:50;9.93;;;8.68;;
50533;SDS011;60631;49.236;8.398;2022-07-23T06:50:51;10.18;;;7.90;;
50533;SDS011;60631;49.236;8.398;2022-07-23T06:53:53;9.93;;;8.55;;
50533;SDS011;60631;49.236;8.398;2022-07-23T06:56:54;8.73;;;7.82;;
50533;SDS011;60631;49.236;8.398;2022-07-23T06:59:55;8.55;;;7.75;;
50533;SDS011;60631;49.236;8.398;2022-07-23T07:02:56;8.27;;;7.50;;
50533;SDS011;60631;49.236;8.398;2022-07-23T07:05:57;9.05;;;8.25;;
50533;SDS011;60631;49.236;8.398;2022-07-23T07:08:58;9.00;;;8.10;;
50533;SDS011;60631;49.236;8.398;2022-07-23T07:11:59;8.38;;;7.55;;
50533;SDS011;60631;49.236;8.398;2022-07-23T07:15:00;8.63;;;7.70;;
50533;SDS011;60631;49.236;8.398;2022-07-23T07:18:01;8.32;;;7.53;;
50533;SDS011;60631;49.236;8.398;2022-07-23T07:21:02;7.63;;;6.93;;
50533;SDS011;60631;49.236;8.398;2022-07-23T07:24:03;8.07;;;7.30;;
50533;SDS011;60631;49.236;8.398;2022-07-23T07:27:04;7.97;;;7.10;;
50533;SDS011;60631;49.236;8.398;2022-07-23T07:30:06;7.68;;;6.95;;
50533;SDS011;60631;49.236;8.398;2022-07-23T07:33:08;8.27;;;7.05;;
50533;SDS011;60631;49.236;8.398;2022-07-23T07:36:09;7.65;;;6.95;;
50533;SDS011;60631;49.236;8.398;2022-07-23T07:39:10;8.18;;;7.38;;
50533;SDS011;60631;49.236;8.398;2022-07-23T07:42:11;8.43;;;7.65;;
50533;SDS011;60631;49.236;8.398;2022-07-23T07:45:12;7.75;;;7.07;;
50533;SDS011;60631;49.236;8.398;2022-07-23T07:48:13;9.13;;;8.23;;
50533;SDS011;60631;49.236;8.398;2022-07-23T07:51:14;9.30;;;8.40;;
50533;SDS011;60631;49.236;8.398;2022-07-23T07:54:15;8.25;;;7.45;;
50533;SDS011;60631;49.236;8.398;2022-07-23T07:57:16;8.60;;;7.80;;
50533;SDS011;60631;49.236;8.398;2022-07-23T08:00:17;8.05;;;7.25;;
50533;SDS011;60631;49.236;8.398;2022-07-23T08:03:18;8.52;;;7.65;;
50533;SDS011;60631;49.236;8.398;2022-07-23T08:06:19;8.45;;;7.55;;
50533;SDS011;60631;49.236;8.398;2022-07-23T08:09:20;7.95;;;7.15;;
50533;SDS011;60631;49.236;8.398;2022-07-23T08:12:22;8.35;;;7.55;;
50533;SDS011;60631;49.236;8.398;2022-07-23T08:15:23;8.65;;;7.85;;
50533;SDS011;60631;49.236;8.398;2022-07-23T08:18:25;8.43;;;7.65;;
50533;SDS011;60631;49.236;8.398;2022-07-23T08:21:26;8.50;;;7.70;;
50533;SDS011;60631;49.236;8.398;2022-07-23T08:24:27;9.02;;;6.93;;
50533;SDS011;60631;49.236;8.398;2022-07-23T08:27:28;9.63;;;7.25;;
50533;SDS011;60631;49.236;8.398;2022-07-23T08:30:30;8.02;;;7.32;;
50533;SDS011;60631;49.236;8.398;2022-07-23T08:33:32;8.77;;;7.55;;
50533;SDS011;60631;49.236;8.398;2022-07-23T08:36:33;11.40;;;7.53;;
50533;SDS011;60631;49.236;8.398;2022-07-23T08:39:34;7.30;;;6.60;;
50533;SDS011;60631;49.236;8.398;2022-07-23T08:42:35;8.18;;;7.47;;
50533;SDS011;60631;49.236;8.398;2022-07-23T08:45:38;7.90;;;7.20;;
50533;SDS011;60631;49.236;8.398;2022-07-23T18:29:16;6.40;;;5.90;;
50533;SDS011;60631;49.236;8.398;2022-07-23T18:32:18;6.45;;;6.03;;
50533;SDS011;60631;49.236;8.398;2022-07-23T18:35:19;6.70;;;6.10;;
50533;SDS011;60631;49.236;8.398;2022-07-23T18:38:20;6.38;;;5.88;;
50533;SDS011;60631;49.236;8.398;2022-07-23T18:41:21;6.07;;;5.57;;
50533;SDS011;60631;49.236;8.398;2022-07-23T18:44:22;7.05;;;5.95;;
50533;SDS011;60631;49.236;8.398;2022-07-23T18:47:24;6.40;;;5.90;;
50533;SDS011;60631;49.236;8.398;2022-07-23T18:50:25;6.40;;;5.90;;
50533;SDS011;60631;49.236;8.398;2022-07-23T18:53:26;6.50;;;6.00;;
50533;SDS011;60631;49.236;8.398;2022-07-23T18:56:27;6.70;;;6.20;;
50533;SDS011;60631;49.236;8.398;2022-07-23T18:59:28;6.93;;;6.43;;
50533;SDS011;60631;49.236;8.398;2022-07-23T19:02:29;7.03;;;6.30;;
50533;SDS011;60631;49.236;8.398;2022-07-23T19:05:30;7.25;;;6.72;;
50533;SDS011;60631;49.236;8.398;2022-07-23T19:08:31;7.28;;;6.68;;
50533;SDS011;60631;49.236;8.398;2022-07-23T19:11:32;7.15;;;6.53;;
50533;SDS011;60631;49.236;8.398;2022-07-23T19:14:34;6.90;;;6.38;;
50533;SDS011;60631;49.236;8.398;2022-07-23T19:17:35;7.32;;;6.63;;
50533;SDS011;60631;49.236;8.398;2022-07-23T19:20:36;7.78;;;7.10;;
50533;SDS011;60631;49.236;8.398;2022-07-23T19:23:37;8.02;;;7.32;;
50533;SDS011;60631;49.236;8.398;2022-07-23T19:26:39;7.57;;;6.97;;
50533;SDS011;60631;49.236;8.398;2022-07-23T19:29:40;7.20;;;6.60;;
50533;SDS011;60631;49.236;8.398;2022-07-23T19:32:41;7.30;;;6.55;;
50533;SDS011;60631;49.236;8.398;2022-07-23T19:35:42;7.38;;;6.43;;
50533;SDS011;60631;49.236;8.398;2022-07-23T19:38:43;8.20;;;7.40;;
50533;SDS011;60631;49.236;8.398;2022-07-23T19:41:44;7.70;;;7.10;;
50533;SDS011;60631;49.236;8.398;2022-07-23T19:44:45;7.65;;;6.85;;
50533;SDS011;60631;49.236;8.398;2022-07-23T19:47:46;7.63;;;6.95;;
50533;SDS011;60631;49.236;8.398;2022-07-23T19:50:47;8.27;;;7.50;;
50533;SDS011;60631;49.236;8.398;2022-07-23T19:53:48;7.28;;;6.68;;
50533;SDS011;60631;49.236;8.398;2022-07-23T19:56:49;8.00;;;7.20;;
50533;SDS011;60631;49.236;8.398;2022-07-23T19:59:51;8.07;;;7.10;;
50533;SDS011;60631;49.236;8.398;2022-07-23T20:02:52;8.60;;;7.90;;
50533;SDS011;60631;49.236;8.398;2022-07-23T20:05:54;7.90;;;7.20;;
50533;SDS011;60631;49.236;8.398;2022-07-23T20:08:55;8.10;;;7.40;;
50533;SDS011;60631;49.236;8.398;2022-07-23T20:11:56;8.23;;;7.53;;
50533;SDS011;60631;49.236;8.398;2022-07-23T20:14:57;10.55;;;6.88;;
50533;SDS011;60631;49.236;8.398;2022-07-23T20:17:58;7.82;;;7.13;;
50533;SDS011;60631;49.236;8.398;2022-07-23T20:21:01;8.10;;;7.40;;
50533;SDS011;60631;49.236;8.398;2022-07-23T20:24:02;8.48;;;7.68;;
50533;SDS011;60631;49.236;8.398;2022-07-23T20:27:06;9.93;;;7.72;;
50533;SDS011;60631;49.236;8.398;2022-07-23T20:30:07;8.25;;;7.45;;
50533;SDS011;60631;49.236;8.398;2022-07-23T20:33:09;8.82;;;8.02;;
50533;SDS011;60631;49.236;8.398;2022-07-23T20:36:10;8.50;;;7.70;;
50533;SDS011;60631;49.236;8.398;2022-07-23T20:39:11;8.00;;;7.40;;
50533;SDS011;60631;49.236;8.398;2022-07-23T20:42:12;8.02;;;7.22;;
50533;SDS011;60631;49.236;8.398;2022-07-23T20:45:13;8.85;;;8.07;;
50533;SDS011;60631;49.236;8.398;2022-07-23T20:48:14;8.93;;;8.13;;
50533;SDS011;60631;49.236;8.398;2022-07-23T20:51:16;9.23;;;8.32;;
50533;SDS011;60631;49.236;8.398;2022-07-23T20:54:17;9.27;;;8.43;;
50533;SDS011;60631;49.236;8.398;2022-07-23T20:57:18;9.25;;;7.75;;
50533;SDS011;60631;49.236;8.398;2022-07-23T21:00:19;9.15;;;8.18;;
50533;SDS011;60631;49.236;8.398;2022-07-23T21:03:20;8.75;;;7.95;;
50533;SDS011;60631;49.236;8.398;2022-07-23T21:06:21;8.43;;;7.65;;
50533;SDS011;60631;49.236;8.398;2022-07-23T21:09:22;8.43;;;7.65;;
50533;SDS011;60631;49.236;8.398;2022-07-23T21:12:23;8.45;;;7.75;;
50533;SDS011;60631;49.236;8.398;2022-07-23T21:15:25;8.82;;;7.93;;
50533;SDS011;60631;49.236;8.398;2022-07-23T21:18:27;8.18;;;7.35;;
50533;SDS011;60631;49.236;8.398;2022-07-23T21:21:28;9.35;;;8.40;;
50533;SDS011;60631;49.236;8.398;2022-07-23T21:24:29;9.23;;;8.30;;
50533;SDS011;60631;49.236;8.398;2022-07-23T21:27:30;10.55;;;9.52;;
50533;SDS011;60631;49.236;8.398;2022-07-23T21:30:31;8.77;;;7.97;;
50533;SDS011;60631;49.236;8.398;2022-07-23T21:33:32;9.45;;;8.60;;
50533;SDS011;60631;49.236;8.398;2022-07-23T21:36:33;8.68;;;7.70;;
50533;SDS011;60631;49.236;8.398;2022-07-23T21:39:34;9.18;;;8.27;;
50533;SDS011;60631;49.236;8.398;2022-07-23T21:42:35;9.43;;;8.50;;
50533;SDS011;60631;49.236;8.398;2022-07-23T21:45:37;8.75;;;7.95;;
50533;SDS011;60631;49.236;8.398;2022-07-23T21:48:38;8.80;;;8.05;;
50533;SDS011;60631;49.236;8.398;2022-07-23T21:51:39;8.68;;;7.88;;
50533;SDS011;60631;49.236;8.398;2022-07-23T21:54:44;9.13;;;8.30;;
50533;SDS011;60631;49.236;8.398;2022-07-23T21:57:45;8.45;;;7.57;;
50533;SDS011;60631;49.236;8.398;2022-07-23T22:00:46;8.90;;;8.00;;
50533;SDS011;60631;49.236;8.398;2022-07-23T22:03:48;8.85;;;8.05;;
50533;SDS011;60631;49.236;8.398;2022-07-23T22:06:49;9.02;;;8.20;;
50533;SDS011;60631;49.236;8.398;2022-07-23T22:09:50;8.52;;;7.82;;
50533;SDS011;60631;49.236;8.398;2022-07-23T22:12:52;9.25;;;8.32;;
50533;SDS011;60631;49.236;8.398;2022-07-23T22:15:53;8.82;;;7.68;;
50533;SDS011;60631;49.236;8.398;2022-07-23T22:18:54;9.30;;;7.80;;
50533;SDS011;60631;49.236;8.398;2022-07-23T22:21:55;8.48;;;7.68;;
50533;SDS011;60631;49.236;8.398;2022-07-23T22:24:56;9.35;;;7.85;;
50533;SDS011;60631;49.236;8.398;2022-07-23T22:27:57;7.97;;;7.28;;
50533;SDS011;60631;49.236;8.398;2022-07-23T22:30:58;7.78;;;7.07;;
50533;SDS011;60631;49.236;8.398;2022-07-23T22:33:59;7.60;;;6.90;;
50533;SDS011;60631;49.236;8.398;2022-07-23T22:37:00;7.38;;;6.40;;
50533;SDS011;60631;49.236;8.398;2022-07-23T22:40:02;7.00;;;6.30;;
50533;SDS011;60631;49.236;8.398;2022-07-23T22:43:04;6.90;;;6.30;;
50533;SDS011;60631;49.236;8.398;2022-07-23T22:46:05;6.60;;;6.00;;
50533;SDS011;60631;49.236;8.398;2022-07-23T22:49:06;6.38;;;5.78;;
50533;SDS011;60631;49.236;8.398;2022-07-23T22:52:07;8.02;;;6.00;;
50533;SDS011;60631;49.236;8.398;2022-07-23T22:55:08;6.43;;;5.78;;
50533;SDS011;60631;49.236;8.398;2022-07-23T22:58:09;6.50;;;5.90;;
50533;SDS011;60631;49.236;8.398;2022-07-23T23:01:10;7.50;;;5.43;;
50533;SDS011;60631;49.236;8.398;2022-07-23T23:04:11;5.50;;;5.00;;
50533;SDS011;60631;49.236;8.398;2022-07-23T23:07:12;5.50;;;5.00;;
50533;SDS011;60631;49.236;8.398;2022-07-23T23:10:13;5.53;;;4.97;;
50533;SDS011;60631;49.236;8.398;2022-07-23T23:13:14;4.82;;;4.43;;
50533;SDS011;60631;49.236;8.398;2022-07-23T23:16:15;5.38;;;4.47;;
50533;SDS011;60631;49.236;8.398;2022-07-23T23:19:16;5.53;;;4.85;;
50533;SDS011;60631;49.236;8.398;2022-07-23T23:22:18;5.57;;;4.60;;
50533;SDS011;60631;49.236;8.398;2022-07-23T23:25:19;4.90;;;4.40;;
50533;SDS011;60631;49.236;8.398;2022-07-23T23:28:20;6.55;;;4.35;;
50533;SDS011;60631;49.236;8.398;2022-07-23T23:31:21;4.82;;;4.28;;
50533;SDS011;60631;49.236;8.398;2022-07-23T23:34:23;5.22;;;4.40;;
50533;SDS011;60631;49.236;8.398;2022-07-23T23:37:24;5.93;;;4.40;;
50533;SDS011;60631;49.236;8.398;2022-07-23T23:40:25;5.47;;;4.47;;
50533;SDS011;60631;49.236;8.398;2022-07-23T23:43:26;5.03;;;4.45;;
50533;SDS011;60631;49.236;8.398;2022-07-23T23:46:27;5.20;;;4.70;;
50533;SDS011;60631;49.236;8.398;2022-07-23T23:49:29;5.00;;;4.38;;
50533;SDS011;60631;49.236;8.398;2022-07-23T23:52:30;5.00;;;4.07;;
50533;SDS011;60631;49.236;8.398;2022-07-23T23:55:31;4.30;;;4.00;;
50533;SDS011;60631;49.236;8.398;2022-07-23T23:58:32;5.65;;;4.70;;
